createdAt,value
2022-11-24T00:03:23.173Z,76.35
2022-11-24T00:08:24.796Z,75.65
2022-11-24T00:13:26.375Z,77.10
2022-11-24T00:18:28.012Z,70.53
2022-11-24T00:23:29.599Z,79.05
2022-11-24T00:28:31.194Z,72.35
2022-11-24T00:33:32.790Z,81.35
2022-11-24T00:38:34.384Z,78.22
2022-11-24T00:43:36.005Z,97.05
2022-11-24T00:48:37.588Z,103.65
2022-11-24T00:53:39.197Z,85.28
2022-11-24T00:58:40.824Z,89.95
2022-11-24T01:03:42.380Z,87.95
2022-11-24T01:14:10.033Z,87.75
2022-11-24T01:19:11.602Z,83.07
2022-11-24T01:24:13.174Z,85.22
2022-11-24T01:29:14.759Z,85.57
2022-11-24T01:34:16.343Z,80.60
2022-11-24T01:39:17.944Z,91.28
2022-11-24T01:44:19.565Z,87.38
2022-11-24T01:49:21.182Z,91.57
2022-11-24T01:54:22.789Z,96.50
2022-11-24T01:59:24.372Z,90.22
2022-11-24T02:04:25.968Z,91.13
2022-11-24T02:09:27.534Z,98.95
2022-11-24T02:14:29.136Z,109.22
2022-11-24T02:19:30.709Z,92.82
2022-11-24T02:24:32.626Z,91.55
2022-11-24T02:29:34.431Z,82.30
2022-11-24T02:34:36.209Z,90.82
2022-11-24T02:39:37.931Z,92.40
2022-11-24T02:44:39.540Z,89.88
2022-11-24T02:49:41.138Z,79.43
2022-11-24T02:54:42.727Z,94.22
2022-11-24T02:59:44.326Z,87.30
2022-11-24T03:04:45.924Z,92.68
2022-11-24T03:09:47.525Z,103.72
2022-11-24T03:14:49.135Z,121.30
2022-11-24T03:19:50.720Z,140.52
2022-11-24T03:24:52.293Z,187.70
2022-11-24T03:29:53.891Z,252.35
2022-11-24T03:34:55.488Z,288.73
2022-11-24T03:39:57.125Z,244.30
2022-11-24T03:45:04.195Z,215.38
2022-11-24T03:50:18.490Z,171.82
2022-11-24T03:55:20.099Z,174.13
2022-11-24T04:00:21.694Z,147.43
2022-11-24T04:05:23.285Z,120.28
2022-11-24T04:10:24.878Z,112.60
2022-11-24T04:15:26.502Z,119.55
2022-11-24T04:20:28.095Z,107.80
2022-11-24T04:25:29.671Z,107.97
2022-11-24T04:30:31.245Z,106.95
2022-11-24T04:35:32.840Z,113.13
2022-11-24T04:40:34.421Z,115.03
2022-11-24T04:45:35.996Z,114.38
2022-11-24T04:50:37.570Z,117.22
2022-11-24T04:55:39.144Z,111.25
2022-11-24T05:00:40.731Z,118.00
2022-11-24T05:05:42.288Z,123.38
2022-11-24T05:10:43.811Z,116.35
2022-11-24T05:15:45.397Z,115.45
2022-11-24T05:20:46.958Z,111.88
2022-11-24T05:25:48.486Z,120.28
2022-11-24T05:30:50.016Z,102.72
2022-11-24T05:35:51.533Z,120.65
2022-11-24T05:40:53.053Z,114.47
2022-11-24T05:45:54.598Z,122.65
2022-11-24T05:50:56.144Z,114.38
2022-11-24T06:01:16.646Z,113.53
2022-11-24T06:06:18.129Z,119.90
2022-11-24T06:11:19.612Z,125.80
2022-11-24T06:16:21.231Z,118.07
2022-11-24T06:21:22.768Z,136.52
2022-11-24T06:26:24.232Z,136.35
2022-11-24T06:31:25.764Z,137.85
2022-11-24T06:36:27.312Z,133.07
2022-11-24T06:41:28.819Z,112.95
2022-11-24T06:46:30.323Z,107.70
2022-11-24T06:51:31.828Z,135.02
2022-11-24T06:56:33.325Z,115.22
2022-11-24T07:01:34.820Z,138.07
2022-11-24T07:06:36.281Z,140.32
2022-11-24T07:11:37.779Z,139.02
2022-11-24T07:16:39.326Z,147.70
2022-11-24T07:21:40.805Z,130.13
2022-11-24T07:26:42.343Z,146.63
2022-11-24T07:31:43.862Z,134.73
2022-11-24T07:36:45.399Z,133.43
2022-11-24T07:41:46.848Z,136.32
2022-11-24T07:46:48.338Z,123.60
2022-11-24T07:51:49.826Z,124.05
2022-11-24T07:56:51.292Z,135.07
2022-11-24T08:01:52.774Z,142.10
2022-11-24T08:06:54.240Z,126.97
2022-11-24T08:11:55.709Z,117.32
2022-11-24T08:16:57.238Z,151.70
2022-11-24T08:21:58.736Z,127.15
2022-11-24T08:27:00.208Z,118.03
2022-11-24T08:32:01.744Z,111.53
2022-11-24T08:37:03.336Z,104.10
2022-11-24T08:42:04.903Z,98.13
2022-11-24T08:47:06.402Z,110.60
2022-11-24T08:52:07.898Z,124.85
2022-11-24T08:57:10.469Z,96.65
2022-11-24T09:02:11.949Z,103.60
2022-11-24T09:07:13.514Z,95.85
2022-11-24T09:12:15.033Z,98.05
2022-11-24T09:17:16.525Z,84.45
2022-11-24T09:22:18.037Z,88.25
2022-11-24T09:27:19.497Z,87.18
2022-11-24T09:32:20.979Z,80.25
2022-11-24T09:37:22.476Z,77.85
2022-11-24T09:42:23.969Z,71.45
2022-11-24T09:47:25.436Z,89.65
2022-11-24T09:52:26.925Z,80.97
2022-11-24T09:57:32.655Z,83.07
2022-11-24T10:02:37.255Z,77.50
2022-11-24T10:07:38.820Z,74.35
2022-11-24T10:12:40.383Z,79.18
2022-11-24T10:17:41.873Z,75.60
2022-11-24T10:22:43.374Z,80.30
2022-11-24T10:27:44.893Z,79.72
2022-11-24T10:32:46.431Z,82.75
2022-11-24T10:37:47.894Z,80.78
2022-11-24T10:42:49.390Z,85.68
2022-11-24T10:47:50.894Z,81.15
2022-11-24T10:52:52.398Z,82.38
2022-11-24T10:57:53.897Z,90.57
2022-11-24T11:02:55.459Z,83.30
2022-11-24T11:08:00.965Z,86.05
2022-11-24T11:24:38.492Z,85.07
2022-11-24T11:35:01.457Z,79.68
2022-11-24T11:40:02.947Z,85.70
2022-11-24T11:45:04.454Z,88.63
2022-11-24T11:50:05.957Z,92.75
2022-11-24T11:55:07.439Z,78.05
2022-11-24T12:00:08.948Z,95.72
2022-11-24T12:05:10.531Z,88.85
2022-11-24T12:10:12.082Z,83.15
2022-11-24T12:15:13.621Z,84.75
2022-11-24T12:20:15.152Z,90.82
2022-11-24T12:25:16.630Z,94.57
2022-11-24T12:30:18.135Z,89.38
2022-11-24T12:35:19.658Z,89.13
2022-11-24T12:40:21.130Z,85.45
2022-11-24T12:45:22.626Z,87.10
2022-11-24T12:50:24.165Z,82.25
2022-11-24T12:55:25.726Z,84.88
2022-11-24T13:00:27.239Z,78.68
2022-11-24T13:05:28.767Z,87.60
2022-11-24T13:10:54.247Z,83.72
2022-11-24T13:16:13.092Z,85.93
2022-11-24T13:21:13.313Z,95.13
2022-11-24T13:26:14.837Z,99.95
2022-11-24T13:31:16.410Z,104.30
2022-11-24T13:36:17.894Z,99.00
2022-11-24T13:41:28.493Z,94.05
2022-11-24T13:46:30.420Z,92.25
2022-11-24T13:51:31.961Z,88.32
2022-11-24T13:56:33.451Z,87.30
2022-11-24T14:01:34.947Z,93.22
2022-11-24T14:06:36.480Z,93.65
2022-11-24T14:11:37.982Z,86.82
2022-11-24T14:16:39.465Z,96.03
2022-11-24T14:21:40.931Z,92.15
2022-11-24T14:26:42.390Z,98.80
2022-11-24T14:31:43.982Z,95.00
2022-11-24T14:36:45.547Z,89.30
2022-11-24T14:41:47.061Z,95.70
2022-11-24T14:46:48.639Z,95.53
2022-11-24T14:51:50.157Z,94.40
2022-11-24T14:56:51.630Z,88.82
2022-11-24T15:01:53.147Z,86.72
2022-11-24T15:06:54.662Z,92.65
2022-11-24T15:11:56.145Z,90.95
2022-11-24T15:16:57.652Z,85.30
2022-11-24T15:21:59.130Z,86.53
2022-11-24T15:27:00.602Z,85.00
2022-11-24T15:32:02.085Z,92.50
2022-11-24T15:37:03.606Z,93.95
2022-11-24T15:42:05.122Z,89.47
2022-11-24T15:47:06.654Z,100.55
2022-11-24T15:52:08.174Z,101.35
2022-11-24T15:57:09.680Z,90.50
2022-11-24T16:02:11.288Z,91.38
2022-11-24T16:07:12.856Z,91.43
2022-11-24T16:12:14.419Z,86.78
2022-11-24T16:17:15.932Z,87.88
2022-11-24T16:22:17.467Z,100.38
2022-11-24T16:27:19.005Z,118.82
2022-11-24T16:32:20.502Z,112.63
2022-11-24T16:37:22.005Z,101.55
2022-11-24T16:42:23.527Z,105.28
2022-11-24T16:47:25.032Z,131.70
2022-11-24T16:52:26.527Z,112.72
2022-11-24T16:57:28.031Z,112.50
2022-11-24T17:02:29.600Z,93.88
2022-11-24T17:07:31.291Z,109.38
2022-11-24T17:12:32.830Z,140.45
2022-11-24T17:17:34.331Z,238.52
2022-11-24T17:22:35.836Z,157.45
2022-11-24T17:27:37.330Z,182.48
2022-11-24T17:32:38.803Z,158.48
2022-11-24T17:37:40.319Z,149.10
2022-11-24T17:42:41.837Z,131.23
2022-11-24T17:47:43.313Z,126.72
2022-11-24T17:52:44.805Z,119.10
2022-11-24T17:57:46.310Z,120.13
2022-11-24T18:02:47.830Z,119.63
2022-11-24T18:07:49.413Z,131.07
2022-11-24T18:12:50.975Z,153.10
2022-11-24T18:17:52.502Z,149.35
2022-11-24T18:23:09.310Z,136.57
2022-11-24T18:28:10.834Z,150.15
2022-11-24T18:33:12.346Z,136.07
2022-11-24T18:38:13.805Z,132.68
2022-11-24T18:43:15.294Z,145.15
2022-11-24T18:48:16.787Z,136.02
2022-11-24T18:53:18.293Z,153.50
2022-11-24T18:58:19.802Z,157.60
2022-11-24T19:03:21.293Z,169.13
2022-11-24T19:08:22.795Z,146.52
2022-11-24T19:13:24.318Z,146.05
2022-11-24T19:18:25.863Z,143.85
2022-11-24T19:23:27.356Z,153.23
2022-11-24T19:28:28.881Z,138.57
2022-11-24T19:33:30.394Z,144.50
2022-11-24T19:38:31.878Z,180.00
2022-11-24T19:43:33.431Z,183.98
2022-11-24T19:48:34.938Z,166.82
2022-11-24T19:53:36.494Z,144.23
2022-11-24T19:58:38.000Z,151.25
2022-11-24T20:03:39.509Z,148.18
2022-11-24T20:08:41.030Z,150.63
2022-11-24T20:13:42.541Z,163.20
2022-11-24T20:18:44.056Z,185.13
2022-11-24T20:23:45.563Z,179.82
2022-11-24T20:28:47.068Z,148.20
2022-11-24T20:33:48.578Z,163.95
2022-11-24T20:38:50.067Z,156.73
2022-11-24T20:43:51.550Z,162.98
2022-11-24T20:48:53.045Z,150.35
2022-11-24T20:53:54.575Z,159.05
2022-11-24T20:58:56.109Z,159.55
2022-11-24T21:03:57.578Z,149.48
2022-11-24T21:09:03.457Z,149.27
2022-11-24T21:14:05.575Z,142.45
2022-11-24T21:19:07.100Z,157.65
2022-11-24T21:24:08.630Z,156.65
2022-11-24T21:29:10.163Z,190.25
2022-11-24T21:34:11.654Z,159.73
2022-11-24T21:39:13.190Z,159.25
2022-11-24T21:44:14.811Z,150.75
2022-11-24T21:49:16.295Z,200.35
2022-11-24T21:54:17.770Z,181.27
2022-11-24T21:59:19.249Z,160.57
2022-11-24T22:04:20.770Z,173.30
2022-11-24T22:09:22.291Z,205.38
2022-11-24T22:14:23.801Z,201.90
2022-11-24T22:19:25.297Z,181.65
2022-11-24T22:24:27.501Z,170.95
2022-11-24T22:29:29.050Z,177.25
2022-11-24T22:34:30.545Z,169.65
2022-11-24T22:39:32.070Z,177.57
2022-11-24T22:44:33.820Z,168.70
2022-11-24T22:49:35.573Z,168.73
2022-11-24T22:54:37.382Z,151.40
2022-11-24T22:59:39.217Z,143.00
2022-11-24T23:04:40.785Z,128.63
2022-11-24T23:09:42.312Z,121.72
2022-11-24T23:14:43.810Z,111.20
2022-11-24T23:19:45.309Z,120.35
2022-11-24T23:24:46.838Z,103.97
2022-11-24T23:29:48.367Z,104.25
2022-11-24T23:34:49.897Z,93.35
2022-11-24T23:39:51.371Z,91.20
2022-11-24T23:44:52.890Z,105.05
2022-11-24T23:49:54.404Z,93.63
2022-11-24T23:54:55.893Z,98.88
2022-11-24T23:59:57.385Z,90.15
